sensor_id;sensor_type;location;lat;lon;timestamp;pressure;altitude;pressure_sealevel;temperature;humidity
46778;BME280;32536;47.128;8.746;2022-07-23T00:00:23;92095.41;;;23.42;48.65
46778;BME280;32536;47.128;8.746;2022-07-23T00:02:50;92069.56;;;23.43;47.66
46778;BME280;32536;47.128;8.746;2022-07-23T00:05:17;92046.28;;;23.47;47.31
46778;BME280;32536;47.128;8.746;2022-07-23T00:07:43;92029.47;;;23.55;47.23
46778;BME280;32536;47.128;8.746;2022-07-23T00:10:10;92004.66;;;23.58;47.49
46778;BME280;32536;47.128;8.746;2022-07-23T00:12:38;92002.44;;;23.62;47.46
46778;BME280;32536;47.128;8.746;2022-07-23T00:15:06;91985.06;;;23.65;48.36
46778;BME280;32536;47.128;8.746;2022-07-23T00:17:33;91964.38;;;23.59;49.15
46778;BME280;32536;47.128;8.746;2022-07-23T00:20:01;91954.59;;;23.52;49.02
46778;BME280;32536;47.128;8.746;2022-07-23T00:22:28;91963.78;;;23.49;48.31
46778;BME280;32536;47.128;8.746;2022-07-23T00:24:56;91954.81;;;23.48;48.72
46778;BME280;32536;47.128;8.746;2022-07-23T00:27:23;91947.16;;;23.53;48.17
46778;BME280;32536;47.128;8.746;2022-07-23T00:29:50;91951.66;;;23.56;48.12
46778;BME280;32536;47.128;8.746;2022-07-23T00:32:17;91948.19;;;23.55;49.00
46778;BME280;32536;47.128;8.746;2022-07-23T00:34:44;91934.78;;;23.57;48.40
46778;BME280;32536;47.128;8.746;2022-07-23T00:37:10;91916.69;;;23.65;47.91
46778;BME280;32536;47.128;8.746;2022-07-23T00:39:37;91904.41;;;23.76;47.98
46778;BME280;32536;47.128;8.746;2022-07-23T00:42:04;91899.22;;;23.83;48.07
46778;BME280;32536;47.128;8.746;2022-07-23T00:44:31;91887.59;;;23.89;48.68
46778;BME280;32536;47.128;8.746;2022-07-23T00:46:58;91885.13;;;23.91;48.11
46778;BME280;32536;47.128;8.746;2022-07-23T00:49:27;91878.16;;;23.90;50.45
46778;BME280;32536;47.128;8.746;2022-07-23T00:51:56;91854.19;;;23.79;49.38
46778;BME280;32536;47.128;8.746;2022-07-23T00:54:26;91840.72;;;23.75;49.54
46778;BME280;32536;47.128;8.746;2022-07-23T00:56:53;91823.56;;;23.75;49.35
46778;BME280;32536;47.128;8.746;2022-07-23T00:59:20;91818.81;;;23.70;49.58
46778;BME280;32536;47.128;8.746;2022-07-23T01:01:47;91798.66;;;23.67;49.21
46778;BME280;32536;47.128;8.746;2022-07-23T01:04:15;91794.19;;;23.70;49.00
46778;BME280;32536;47.128;8.746;2022-07-23T01:06:43;91797.94;;;23.72;48.82
46778;BME280;32536;47.128;8.746;2022-07-23T01:09:11;91794.78;;;23.79;48.63
46778;BME280;32536;47.128;8.746;2022-07-23T01:11:38;91791.53;;;23.81;48.97
46778;BME280;32536;47.128;8.746;2022-07-23T01:14:13;91786.78;;;23.76;51.68
46778;BME280;32536;47.128;8.746;2022-07-23T01:16:43;91790.38;;;23.61;50.45
46778;BME280;32536;47.128;8.746;2022-07-23T01:19:11;91798.94;;;23.43;50.33
46778;BME280;32536;47.128;8.746;2022-07-23T01:21:43;91794.03;;;23.26;52.11
46778;BME280;32536;47.128;8.746;2022-07-23T01:24:11;91785.25;;;23.16;49.91
46778;BME280;32536;47.128;8.746;2022-07-23T01:26:44;91772.03;;;23.15;53.27
46778;BME280;32536;47.128;8.746;2022-07-23T01:29:12;91774.50;;;23.13;50.15
46778;BME280;32536;47.128;8.746;2022-07-23T01:31:39;91767.31;;;23.15;50.22
46778;BME280;32536;47.128;8.746;2022-07-23T01:34:07;91766.88;;;23.17;50.46
46778;BME280;32536;47.128;8.746;2022-07-23T01:36:35;91756.69;;;23.17;50.03
46778;BME280;32536;47.128;8.746;2022-07-23T01:39:04;91750.53;;;23.23;49.95
46778;BME280;32536;47.128;8.746;2022-07-23T01:41:32;91756.47;;;23.21;50.20
46778;BME280;32536;47.128;8.746;2022-07-23T01:43:59;91760.38;;;23.14;50.78
46778;BME280;32536;47.128;8.746;2022-07-23T01:46:26;91758.31;;;23.09;50.44
46778;BME280;32536;47.128;8.746;2022-07-23T01:48:53;91766.69;;;23.00;51.19
46778;BME280;32536;47.128;8.746;2022-07-23T01:51:20;91764.88;;;22.97;50.58
46778;BME280;32536;47.128;8.746;2022-07-23T01:53:46;91764.41;;;22.98;50.58
46778;BME280;32536;47.128;8.746;2022-07-23T01:56:13;91763.72;;;23.03;50.20
46778;BME280;32536;47.128;8.746;2022-07-23T01:58:40;91766.50;;;23.09;50.37
46778;BME280;32536;47.128;8.746;2022-07-23T02:01:07;91785.63;;;23.09;50.36
46778;BME280;32536;47.128;8.746;2022-07-23T02:03:34;91788.66;;;23.11;50.36
46778;BME280;32536;47.128;8.746;2022-07-23T02:06:01;91786.59;;;23.06;50.91
46778;BME280;32536;47.128;8.746;2022-07-23T02:08:28;91778.84;;;22.99;51.04
46778;BME280;32536;47.128;8.746;2022-07-23T02:10:54;91788.25;;;22.98;50.56
46778;BME280;32536;47.128;8.746;2022-07-23T02:13:21;91793.94;;;22.94;51.01
46778;BME280;32536;47.128;8.746;2022-07-23T02:15:48;91795.22;;;22.99;50.37
46778;BME280;32536;47.128;8.746;2022-07-23T02:18:15;91788.31;;;23.03;50.08
46778;BME280;32536;47.128;8.746;2022-07-23T02:20:42;91801.50;;;23.05;50.53
46778;BME280;32536;47.128;8.746;2022-07-23T02:23:10;91812.91;;;23.03;50.70
46778;BME280;32536;47.128;8.746;2022-07-23T02:25:37;91807.44;;;23.03;50.29
46778;BME280;32536;47.128;8.746;2022-07-23T02:28:03;91822.63;;;23.05;50.48
46778;BME280;32536;47.128;8.746;2022-07-23T02:30:31;91810.44;;;23.06;50.63
46778;BME280;32536;47.128;8.746;2022-07-23T02:32:58;91813.94;;;23.06;50.38
46778;BME280;32536;47.128;8.746;2022-07-23T02:35:25;91824.38;;;23.08;50.61
46778;BME280;32536;47.128;8.746;2022-07-23T02:37:52;91824.56;;;23.04;50.77
46778;BME280;32536;47.128;8.746;2022-07-23T02:40:19;91818.03;;;22.96;50.89
46778;BME280;32536;47.128;8.746;2022-07-23T02:42:45;91819.25;;;22.95;50.41
46778;BME280;32536;47.128;8.746;2022-07-23T02:45:12;91829.09;;;22.86;51.07
46778;BME280;32536;47.128;8.746;2022-07-23T02:47:39;91843.69;;;22.83;50.91
46778;BME280;32536;47.128;8.746;2022-07-23T02:50:06;91857.84;;;22.82;50.79
46778;BME280;32536;47.128;8.746;2022-07-23T02:52:33;91876.44;;;22.78;51.01
46778;BME280;32536;47.128;8.746;2022-07-23T02:55:00;91883.31;;;22.73;51.11
46778;BME280;32536;47.128;8.746;2022-07-23T02:57:27;91889.22;;;22.71;50.73
46778;BME280;32536;47.128;8.746;2022-07-23T02:59:54;91889.78;;;22.76;50.62
46778;BME280;32536;47.128;8.746;2022-07-23T03:02:21;91887.88;;;22.82;50.49
46778;BME280;32536;47.128;8.746;2022-07-23T03:04:48;91887.97;;;22.88;50.65
46778;BME280;32536;47.128;8.746;2022-07-23T03:07:19;91884.34;;;22.96;50.44
46778;BME280;32536;47.128;8.746;2022-07-23T03:09:45;91911.81;;;23.08;50.18
46778;BME280;32536;47.128;8.746;2022-07-23T03:12:13;91931.00;;;23.13;50.19
46778;BME280;32536;47.128;8.746;2022-07-23T03:14:41;91944.19;;;23.15;49.84
46778;BME280;32536;47.128;8.746;2022-07-23T03:17:08;91967.28;;;23.14;50.12
46778;BME280;32536;47.128;8.746;2022-07-23T03:19:35;92000.22;;;23.05;51.15
46778;BME280;32536;47.128;8.746;2022-07-23T03:22:03;91966.38;;;23.02;50.64
46778;BME280;32536;47.128;8.746;2022-07-23T03:24:30;91997.38;;;22.99;51.03
46778;BME280;32536;47.128;8.746;2022-07-23T03:27:15;91997.09;;;22.97;50.88
46778;BME280;32536;47.128;8.746;2022-07-23T03:29:42;91925.78;;;22.95;50.98
46778;BME280;32536;47.128;8.746;2022-07-23T03:32:09;91901.75;;;22.99;50.87
46778;BME280;32536;47.128;8.746;2022-07-23T03:34:36;91872.03;;;22.86;51.19
46778;BME280;32536;47.128;8.746;2022-07-23T03:37:03;91867.13;;;22.69;51.22
46778;BME280;32536;47.128;8.746;2022-07-23T03:39:30;91876.00;;;22.64;51.64
46778;BME280;32536;47.128;8.746;2022-07-23T03:41:56;91862.88;;;22.68;51.34
46778;BME280;32536;47.128;8.746;2022-07-23T03:44:23;91871.63;;;22.73;51.39
46778;BME280;32536;47.128;8.746;2022-07-23T03:46:50;91884.13;;;22.79;51.45
46778;BME280;32536;47.128;8.746;2022-07-23T03:49:17;91871.59;;;22.88;51.38
46778;BME280;32536;47.128;8.746;2022-07-23T03:51:44;91869.19;;;22.95;51.49
46778;BME280;32536;47.128;8.746;2022-07-23T03:54:10;91862.34;;;23.06;51.42
46778;BME280;32536;47.128;8.746;2022-07-23T03:56:37;91863.44;;;23.14;51.23
46778;BME280;32536;47.128;8.746;2022-07-23T03:59:04;91856.16;;;23.26;51.15
46778;BME280;32536;47.128;8.746;2022-07-23T04:01:31;91873.66;;;23.34;50.97
46778;BME280;32536;47.128;8.746;2022-07-23T04:03:58;91866.72;;;23.39;51.00
46778;BME280;32536;47.128;8.746;2022-07-23T04:06:25;91871.97;;;23.42;51.03
46778;BME280;32536;47.128;8.746;2022-07-23T04:08:52;91859.59;;;23.47;51.10
46778;BME280;32536;47.128;8.746;2022-07-23T04:11:18;91850.47;;;23.56;50.90
46778;BME280;32536;47.128;8.746;2022-07-23T04:13:45;91843.34;;;23.64;50.78
46778;BME280;32536;47.128;8.746;2022-07-23T04:16:12;91841.91;;;23.69;50.83
46778;BME280;32536;47.128;8.746;2022-07-23T04:18:39;91841.41;;;23.70;50.89
46778;BME280;32536;47.128;8.746;2022-07-23T04:21:06;91841.91;;;23.69;50.61
46778;BME280;32536;47.128;8.746;2022-07-23T04:23:33;91841.63;;;23.66;50.53
46778;BME280;32536;47.128;8.746;2022-07-23T04:25:59;91834.88;;;23.62;50.44
46778;BME280;32536;47.128;8.746;2022-07-23T04:28:26;91821.19;;;23.62;50.32
46778;BME280;32536;47.128;8.746;2022-07-23T04:30:56;91833.41;;;23.61;51.03
46778;BME280;32536;47.128;8.746;2022-07-23T04:33:23;91838.81;;;23.55;50.84
46778;BME280;32536;47.128;8.746;2022-07-23T04:35:50;91849.22;;;23.51;50.67
46778;BME280;32536;47.128;8.746;2022-07-23T04:38:17;91850.97;;;23.54;50.49
46778;BME280;32536;47.128;8.746;2022-07-23T04:40:43;91836.88;;;23.61;50.49
46778;BME280;32536;47.128;8.746;2022-07-23T04:43:10;91835.44;;;23.66;50.34
46778;BME280;32536;47.128;8.746;2022-07-23T04:46:01;91846.84;;;23.64;51.40
46778;BME280;32536;47.128;8.746;2022-07-23T04:48:28;91850.63;;;23.73;50.31
46778;BME280;32536;47.128;8.746;2022-07-23T04:50:55;91848.41;;;23.71;50.24
46778;BME280;32536;47.128;8.746;2022-07-23T04:53:22;91857.78;;;23.64;50.60
46778;BME280;32536;47.128;8.746;2022-07-23T04:55:49;91872.41;;;23.61;50.97
46778;BME280;32536;47.128;8.746;2022-07-23T04:58:16;91879.13;;;23.60;50.96
46778;BME280;32536;47.128;8.746;2022-07-23T05:00:42;91893.81;;;23.63;50.79
46778;BME280;32536;47.128;8.746;2022-07-23T05:03:09;91902.56;;;23.67;50.91
46778;BME280;32536;47.128;8.746;2022-07-23T05:05:36;91912.28;;;23.68;50.92
46778;BME280;32536;47.128;8.746;2022-07-23T05:08:03;91920.47;;;23.68;51.19
46778;BME280;32536;47.128;8.746;2022-07-23T05:10:30;91917.25;;;23.70;50.91
46778;BME280;32536;47.128;8.746;2022-07-23T05:12:57;91927.91;;;23.67;50.92
46778;BME280;32536;47.128;8.746;2022-07-23T05:15:24;91920.94;;;23.66;51.34
46778;BME280;32536;47.128;8.746;2022-07-23T05:17:50;91915.47;;;23.66;50.97
46778;BME280;32536;47.128;8.746;2022-07-23T05:20:17;91926.16;;;23.64;51.02
46778;BME280;32536;47.128;8.746;2022-07-23T05:22:44;91933.81;;;23.60;51.12
46778;BME280;32536;47.128;8.746;2022-07-23T05:25:11;91950.97;;;23.61;51.21
46778;BME280;32536;47.128;8.746;2022-07-23T05:27:37;91969.44;;;23.66;51.25
46778;BME280;32536;47.128;8.746;2022-07-23T05:30:05;91984.94;;;23.75;51.13
46778;BME280;32536;47.128;8.746;2022-07-23T05:32:32;91988.00;;;23.82;51.20
46778;BME280;32536;47.128;8.746;2022-07-23T05:34:59;91991.00;;;23.85;51.08
46778;BME280;32536;47.128;8.746;2022-07-23T05:37:26;91979.59;;;23.86;50.92
46778;BME280;32536;47.128;8.746;2022-07-23T05:39:52;91980.06;;;23.85;50.80
46778;BME280;32536;47.128;8.746;2022-07-23T05:42:19;91967.09;;;23.79;51.02
46778;BME280;32536;47.128;8.746;2022-07-23T05:44:46;91974.13;;;23.65;51.17
46778;BME280;32536;47.128;8.746;2022-07-23T05:47:13;91979.56;;;23.60;51.50
46778;BME280;32536;47.128;8.746;2022-07-23T05:49:40;91972.88;;;23.61;51.42
46778;BME280;32536;47.128;8.746;2022-07-23T05:52:07;91973.06;;;23.57;51.48
46778;BME280;32536;47.128;8.746;2022-07-23T05:54:35;91978.19;;;23.49;51.60
46778;BME280;32536;47.128;8.746;2022-07-23T05:57:03;91989.81;;;23.44;51.74
46778;BME280;32536;47.128;8.746;2022-07-23T05:59:30;91991.50;;;23.42;51.81
46778;BME280;32536;47.128;8.746;2022-07-23T06:01:57;92000.84;;;23.35;51.98
46778;BME280;32536;47.128;8.746;2022-07-23T06:04:24;92005.03;;;23.30;52.02
46778;BME280;32536;47.128;8.746;2022-07-23T06:06:51;91997.03;;;23.27;51.98
46778;BME280;32536;47.128;8.746;2022-07-23T06:09:18;92005.25;;;23.27;52.12
46778;BME280;32536;47.128;8.746;2022-07-23T06:11:45;92004.75;;;23.28;52.12
46778;BME280;32536;47.128;8.746;2022-07-23T06:14:12;92011.25;;;23.31;52.07
46778;BME280;32536;47.128;8.746;2022-07-23T06:16:38;92010.50;;;23.30;52.12
46778;BME280;32536;47.128;8.746;2022-07-23T06:19:05;92002.31;;;23.30;52.15
46778;BME280;32536;47.128;8.746;2022-07-23T06:21:32;91994.66;;;23.34;52.07
46778;BME280;32536;47.128;8.746;2022-07-23T06:23:59;92005.59;;;23.34;52.52
46778;BME280;32536;47.128;8.746;2022-07-23T06:26:25;92007.91;;;23.42;52.31
46778;BME280;32536;47.128;8.746;2022-07-23T06:28:52;92009.28;;;23.52;52.13
46778;BME280;32536;47.128;8.746;2022-07-23T06:31:19;91999.44;;;23.60;51.79
46778;BME280;32536;47.128;8.746;2022-07-23T06:33:46;91988.84;;;23.68;51.73
46778;BME280;32536;47.128;8.746;2022-07-23T06:36:12;92008.81;;;23.74;51.73
46778;BME280;32536;47.128;8.746;2022-07-23T06:38:39;92026.28;;;23.82;51.93
46778;BME280;32536;47.128;8.746;2022-07-23T06:41:06;92026.84;;;23.87;51.86
46778;BME280;32536;47.128;8.746;2022-07-23T06:43:33;92038.00;;;23.83;52.11
46778;BME280;32536;47.128;8.746;2022-07-23T06:46:09;92045.19;;;23.80;53.12
46778;BME280;32536;47.128;8.746;2022-07-23T06:48:35;92051.00;;;23.88;51.47
46778;BME280;32536;47.128;8.746;2022-07-23T06:51:03;92053.06;;;23.93;51.29
46778;BME280;32536;47.128;8.746;2022-07-23T06:53:30;92049.63;;;23.98;51.29
46778;BME280;32536;47.128;8.746;2022-07-23T06:55:57;92038.44;;;23.96;51.26
46778;BME280;32536;47.128;8.746;2022-07-23T06:58:23;92040.78;;;23.89;51.48
46778;BME280;32536;47.128;8.746;2022-07-23T07:00:50;92057.69;;;23.87;51.69
46778;BME280;32536;47.128;8.746;2022-07-23T07:03:17;92056.94;;;23.87;51.84
46778;BME280;32536;47.128;8.746;2022-07-23T07:05:45;92079.09;;;23.89;51.92
46778;BME280;32536;47.128;8.746;2022-07-23T07:08:12;92090.31;;;23.91;51.96
46778;BME280;32536;47.128;8.746;2022-07-23T07:10:38;92100.53;;;23.90;51.86
46778;BME280;32536;47.128;8.746;2022-07-23T07:13:05;92107.09;;;23.78;52.25
46778;BME280;32536;47.128;8.746;2022-07-23T07:15:32;92095.97;;;23.66;51.90
46778;BME280;32536;47.128;8.746;2022-07-23T07:17:59;92097.34;;;23.56;52.20
46778;BME280;32536;47.128;8.746;2022-07-23T07:20:26;92099.25;;;23.50;51.87
46778;BME280;32536;47.128;8.746;2022-07-23T07:22:53;92087.28;;;23.47;51.57
46778;BME280;32536;47.128;8.746;2022-07-23T07:25:20;92086.53;;;23.47;51.61
46778;BME280;32536;47.128;8.746;2022-07-23T07:27:46;92086.16;;;23.39;51.59
46778;BME280;32536;47.128;8.746;2022-07-23T07:30:13;92083.91;;;23.38;51.31
46778;BME280;32536;47.128;8.746;2022-07-23T07:32:40;92092.38;;;23.40;51.47
46778;BME280;32536;47.128;8.746;2022-07-23T07:35:08;92098.13;;;23.42;51.73
46778;BME280;32536;47.128;8.746;2022-07-23T07:37:35;92078.81;;;23.45;51.66
46778;BME280;32536;47.128;8.746;2022-07-23T07:40:02;92083.78;;;23.47;52.13
46778;BME280;32536;47.128;8.746;2022-07-23T07:42:30;92082.06;;;23.49;51.90
46778;BME280;32536;47.128;8.746;2022-07-23T07:44:58;92083.31;;;23.48;51.95
46778;BME280;32536;47.128;8.746;2022-07-23T07:47:25;92089.25;;;23.47;51.97
46778;BME280;32536;47.128;8.746;2022-07-23T07:49:52;92089.72;;;23.45;52.07
46778;BME280;32536;47.128;8.746;2022-07-23T07:52:18;92082.47;;;23.42;52.18
46778;BME280;32536;47.128;8.746;2022-07-23T07:54:45;92078.16;;;23.36;52.37
46778;BME280;32536;47.128;8.746;2022-07-23T07:57:12;92084.50;;;23.27;52.46
46778;BME280;32536;47.128;8.746;2022-07-23T07:59:39;92077.72;;;23.22;52.72
46778;BME280;32536;47.128;8.746;2022-07-23T08:02:05;92084.91;;;23.20;52.75
46778;BME280;32536;47.128;8.746;2022-07-23T08:04:32;92086.13;;;23.18;52.84
46778;BME280;32536;47.128;8.746;2022-07-23T08:06:59;92091.31;;;23.16;52.91
46778;BME280;32536;47.128;8.746;2022-07-23T08:09:26;92090.53;;;23.16;52.95
46778;BME280;32536;47.128;8.746;2022-07-23T08:11:53;92086.78;;;23.13;53.16
46778;BME280;32536;47.128;8.746;2022-07-23T08:14:19;92075.06;;;23.13;53.11
46778;BME280;32536;47.128;8.746;2022-07-23T08:16:46;92073.84;;;23.14;53.19
46778;BME280;32536;47.128;8.746;2022-07-23T08:19:13;92076.09;;;23.15;53.32
46778;BME280;32536;47.128;8.746;2022-07-23T08:21:40;92076.22;;;23.21;53.27
46778;BME280;32536;47.128;8.746;2022-07-23T08:24:06;92066.59;;;23.26;53.66
46778;BME280;32536;47.128;8.746;2022-07-23T08:26:33;92061.22;;;23.31;53.56
46778;BME280;32536;47.128;8.746;2022-07-23T08:29:00;92067.53;;;23.38;53.42
46778;BME280;32536;47.128;8.746;2022-07-23T08:31:27;92062.41;;;23.45;53.43
46778;BME280;32536;47.128;8.746;2022-07-23T08:33:53;92064.72;;;23.53;53.23
46778;BME280;32536;47.128;8.746;2022-07-23T08:36:22;92056.13;;;23.60;53.20
46778;BME280;32536;47.128;8.746;2022-07-23T08:38:49;92054.94;;;23.66;53.40
46778;BME280;32536;47.128;8.746;2022-07-23T08:41:16;92048.25;;;23.67;53.42
46778;BME280;32536;47.128;8.746;2022-07-23T08:43:44;92050.31;;;23.73;53.26
46778;BME280;32536;47.128;8.746;2022-07-23T08:46:19;92056.13;;;23.80;53.58
46778;BME280;32536;47.128;8.746;2022-07-23T08:48:48;92059.75;;;23.92;52.99
46778;BME280;32536;47.128;8.746;2022-07-23T08:51:15;92069.06;;;24.01;52.53
46778;BME280;32536;47.128;8.746;2022-07-23T08:53:43;92063.19;;;24.08;52.58
46778;BME280;32536;47.128;8.746;2022-07-23T08:56:10;92060.03;;;24.15;52.56
46778;BME280;32536;47.128;8.746;2022-07-23T08:58:37;92058.38;;;24.23;52.44
46778;BME280;32536;47.128;8.746;2022-07-23T09:01:04;92063.44;;;24.30;52.38
46778;BME280;32536;47.128;8.746;2022-07-23T09:03:33;92062.25;;;24.37;52.19
46778;BME280;32536;47.128;8.746;2022-07-23T09:06:02;92047.38;;;24.44;52.10
46778;BME280;32536;47.128;8.746;2022-07-23T09:11:06;92040.69;;;24.45;52.31
46778;BME280;32536;47.128;8.746;2022-07-23T09:13:42;92041.34;;;24.40;52.51
46778;BME280;32536;47.128;8.746;2022-07-23T09:16:24;92038.09;;;24.36;52.85
46778;BME280;32536;47.128;8.746;2022-07-23T09:19:02;92035.84;;;24.34;52.77
46778;BME280;32536;47.128;8.746;2022-07-23T09:21:31;92040.09;;;24.35;52.72
46778;BME280;32536;47.128;8.746;2022-07-23T09:24:07;92050.75;;;24.33;52.98
46778;BME280;32536;47.128;8.746;2022-07-23T09:26:46;92044.06;;;24.34;52.93
46778;BME280;32536;47.128;8.746;2022-07-23T09:29:19;92038.84;;;24.36;52.87
46778;BME280;32536;47.128;8.746;2022-07-23T09:37:14;92034.22;;;24.48;52.41
46778;BME280;32536;47.128;8.746;2022-07-23T09:39:44;92037.28;;;24.56;52.70
46778;BME280;32536;47.128;8.746;2022-07-23T09:42:25;92034.59;;;24.61;52.69
46778;BME280;32536;47.128;8.746;2022-07-23T09:44:54;92034.47;;;24.71;52.17
46778;BME280;32536;47.128;8.746;2022-07-23T09:47:24;92030.78;;;24.80;52.14
46778;BME280;32536;47.128;8.746;2022-07-23T09:52:37;92023.66;;;24.93;52.37
46778;BME280;32536;47.128;8.746;2022-07-23T09:55:10;92025.22;;;25.00;51.92
46778;BME280;32536;47.128;8.746;2022-07-23T09:57:43;92022.75;;;25.08;52.19
46778;BME280;32536;47.128;8.746;2022-07-23T10:00:19;92032.56;;;25.20;51.81
46778;BME280;32536;47.128;8.746;2022-07-23T10:02:46;92020.63;;;25.29;51.76
46778;BME280;32536;47.128;8.746;2022-07-23T10:05:13;92026.44;;;25.37;51.46
46778;BME280;32536;47.128;8.746;2022-07-23T10:07:42;92025.75;;;25.42;51.38
46778;BME280;32536;47.128;8.746;2022-07-23T10:10:09;92033.25;;;25.47;51.43
46778;BME280;32536;47.128;8.746;2022-07-23T10:12:36;92032.78;;;25.49;51.28
46778;BME280;32536;47.128;8.746;2022-07-23T10:15:24;92027.78;;;25.53;51.19
46778;BME280;32536;47.128;8.746;2022-07-23T10:17:51;92027.34;;;25.60;51.08
46778;BME280;32536;47.128;8.746;2022-07-23T10:20:18;92040.06;;;25.63;51.07
46778;BME280;32536;47.128;8.746;2022-07-23T10:31:32;92043.84;;;25.71;50.54
46778;BME280;32536;47.128;8.746;2022-07-23T10:34:23;92033.91;;;25.80;50.65
46778;BME280;32536;47.128;8.746;2022-07-23T10:37:21;92032.94;;;25.88;49.29
46778;BME280;32536;47.128;8.746;2022-07-23T10:40:27;92041.94;;;25.89;49.57
46778;BME280;32536;47.128;8.746;2022-07-23T10:42:59;92041.94;;;25.89;49.81
46778;BME280;32536;47.128;8.746;2022-07-23T10:45:34;92031.94;;;25.86;47.70
46778;BME280;32536;47.128;8.746;2022-07-23T10:48:15;92036.41;;;25.83;47.84
46778;BME280;32536;47.128;8.746;2022-07-23T10:50:43;92040.63;;;25.79;49.46
46778;BME280;32536;47.128;8.746;2022-07-23T10:56:49;92034.09;;;25.70;48.98
46778;BME280;32536;47.128;8.746;2022-07-23T10:59:31;92026.41;;;25.75;49.59
46778;BME280;32536;47.128;8.746;2022-07-23T11:02:22;92030.88;;;25.72;49.74
46778;BME280;32536;47.128;8.746;2022-07-23T11:04:51;92022.16;;;25.79;50.00
46778;BME280;32536;47.128;8.746;2022-07-23T11:07:18;92022.69;;;25.83;50.17
46778;BME280;32536;47.128;8.746;2022-07-23T11:09:45;92023.97;;;25.88;50.21
46778;BME280;32536;47.128;8.746;2022-07-23T11:15:11;92018.72;;;25.84;49.83
46778;BME280;32536;47.128;8.746;2022-07-23T11:25:06;92027.28;;;26.09;50.08
46778;BME280;32536;47.128;8.746;2022-07-23T11:27:37;92019.81;;;26.15;48.94
46778;BME280;32536;47.128;8.746;2022-07-23T11:30:09;92020.09;;;26.17;49.55
46778;BME280;32536;47.128;8.746;2022-07-23T11:32:40;92018.34;;;26.20;49.13
46778;BME280;32536;47.128;8.746;2022-07-23T11:35:21;92019.59;;;26.19;45.61
46778;BME280;32536;47.128;8.746;2022-07-23T11:37:49;92018.06;;;26.18;48.58
46778;BME280;32536;47.128;8.746;2022-07-23T11:40:20;92018.31;;;26.14;48.82
46778;BME280;32536;47.128;8.746;2022-07-23T11:45:24;92016.34;;;26.15;48.54
46778;BME280;32536;47.128;8.746;2022-07-23T11:47:56;92016.84;;;26.25;49.04
46778;BME280;32536;47.128;8.746;2022-07-23T11:50:23;92019.38;;;26.28;48.48
46778;BME280;32536;47.128;8.746;2022-07-23T11:52:54;92017.63;;;26.31;48.50
46778;BME280;32536;47.128;8.746;2022-07-23T11:55:21;92013.88;;;26.40;48.42
46778;BME280;32536;47.128;8.746;2022-07-23T11:57:51;92022.38;;;26.47;47.26
46778;BME280;32536;47.128;8.746;2022-07-23T12:00:24;92024.13;;;26.56;47.58
46778;BME280;32536;47.128;8.746;2022-07-23T12:02:54;92025.41;;;26.66;48.03
46778;BME280;32536;47.128;8.746;2022-07-23T12:05:27;92011.91;;;26.74;47.83
46778;BME280;32536;47.128;8.746;2022-07-23T12:07:59;92024.91;;;26.74;47.43
46778;BME280;32536;47.128;8.746;2022-07-23T12:10:41;92021.16;;;26.71;46.72
46778;BME280;32536;47.128;8.746;2022-07-23T12:13:13;92024.69;;;26.77;48.11
46778;BME280;32536;47.128;8.746;2022-07-23T12:15:49;92024.94;;;26.85;47.83
46778;BME280;32536;47.128;8.746;2022-07-23T12:18:24;92019.94;;;26.95;47.90
46778;BME280;32536;47.128;8.746;2022-07-23T12:20:54;92024.19;;;27.02;47.88
46778;BME280;32536;47.128;8.746;2022-07-23T12:23:24;92019.44;;;27.08;48.05
46778;BME280;32536;47.128;8.746;2022-07-23T12:25:52;92024.91;;;27.13;47.60
46778;BME280;32536;47.128;8.746;2022-07-23T12:28:22;92019.66;;;27.15;47.86
46778;BME280;32536;47.128;8.746;2022-07-23T12:30:56;92023.16;;;27.22;47.83
46778;BME280;32536;47.128;8.746;2022-07-23T12:33:38;92014.13;;;27.27;47.15
46778;BME280;32536;47.128;8.746;2022-07-23T12:36:07;92010.41;;;27.36;47.66
46778;BME280;32536;47.128;8.746;2022-07-23T12:38:40;92006.63;;;27.39;47.37
46778;BME280;32536;47.128;8.746;2022-07-23T12:41:09;92002.13;;;27.47;47.80
46778;BME280;32536;47.128;8.746;2022-07-23T12:43:38;92009.34;;;27.56;47.60
46778;BME280;32536;47.128;8.746;2022-07-23T12:46:33;92019.34;;;27.64;46.61
46778;BME280;32536;47.128;8.746;2022-07-23T12:49:00;92016.31;;;27.74;47.64
46778;BME280;32536;47.128;8.746;2022-07-23T12:51:28;92007.28;;;27.73;47.53
46778;BME280;32536;47.128;8.746;2022-07-23T12:54:06;92002.53;;;27.74;46.87
46778;BME280;32536;47.128;8.746;2022-07-23T12:56:36;92009.03;;;27.82;45.54
46778;BME280;32536;47.128;8.746;2022-07-23T12:59:08;92012.25;;;27.86;47.48
46778;BME280;32536;47.128;8.746;2022-07-23T13:01:38;92016.00;;;27.89;47.36
46778;BME280;32536;47.128;8.746;2022-07-23T13:04:12;92004.72;;;27.92;46.50
46778;BME280;32536;47.128;8.746;2022-07-23T13:06:46;92003.47;;;27.93;46.75
46778;BME280;32536;47.128;8.746;2022-07-23T13:09:21;91997.97;;;27.93;47.54
46778;BME280;32536;47.128;8.746;2022-07-23T13:11:51;91996.72;;;27.89;47.66
46778;BME280;32536;47.128;8.746;2022-07-23T13:14:20;92007.75;;;27.89;47.80
46778;BME280;32536;47.128;8.746;2022-07-23T13:16:49;92000.25;;;27.89;47.95
46778;BME280;32536;47.128;8.746;2022-07-23T13:19:18;91998.22;;;27.90;47.99
46778;BME280;32536;47.128;8.746;2022-07-23T13:21:45;92001.72;;;27.90;47.75
46778;BME280;32536;47.128;8.746;2022-07-23T13:24:12;91993.50;;;27.85;48.37
46778;BME280;32536;47.128;8.746;2022-07-23T13:26:40;91999.28;;;27.75;48.11
46778;BME280;32536;47.128;8.746;2022-07-23T13:29:07;91998.81;;;27.66;48.05
46778;BME280;32536;47.128;8.746;2022-07-23T13:31:35;92000.13;;;27.47;48.29
46778;BME280;32536;47.128;8.746;2022-07-23T13:34:03;92002.38;;;27.38;48.25
46778;BME280;32536;47.128;8.746;2022-07-23T13:36:31;91997.84;;;27.40;48.20
46778;BME280;32536;47.128;8.746;2022-07-23T13:38:58;92001.38;;;27.35;48.29
46778;BME280;32536;47.128;8.746;2022-07-23T13:41:24;91990.63;;;27.31;48.39
46778;BME280;32536;47.128;8.746;2022-07-23T13:43:51;91995.88;;;27.35;48.19